Time;durP1;ratioP1;P1;durP2;ratioP2;P2;SDS_P1;SDS_P2;PMS_P1;PMS_P2;Temp;Humidity;BMP_temperature;BMP_pressure;BME280_temperature;BME280_humidity;BME280_pressure;Samples;Min_cycle;Max_cycle;Signal;HPM_P1;HPM_P2
2022/04/14 00:00:20;;;;;;;;;16.00;16.00;;;;;14.21;76.51;101452.66;5047186;28;45574;-83
2022/04/14 00:02:45;;;;;;;;;17.50;17.50;;;;;14.31;76.58;101481.19;5062535;28;45813;-84
2022/04/14 00:05:10;;;;;;;;;19.50;19.25;;;;;13.98;76.63;101417.56;5060662;28;45780;-83
2022/04/14 00:07:36;;;;;;;;;17.25;16.50;;;;;14.28;76.20;101482.84;5045206;28;46370;-84
2022/04/14 00:10:03;;;;;;;;;19.25;16.75;;;;;13.88;76.16;101429.59;5058331;28;45112;-84
2022/04/14 00:12:29;;;;;;;;;18.50;18.00;;;;;13.84;76.16;101433.03;5058582;28;45177;-84
2022/04/14 00:14:55;;;;;;;;;18.75;18.00;;;;;13.91;76.82;101456.13;5059473;28;45332;-85
2022/04/14 00:17:20;;;;;;;;;15.75;15.75;;;;;14.14;76.71;101496.53;5062716;28;45313;-85
2022/04/14 00:19:45;;;;;;;;;16.25;16.00;;;;;13.85;76.55;101452.41;5051187;28;45293;-85
2022/04/14 00:22:11;;;;;;;;;16.50;16.25;;;;;13.97;76.23;101473.94;5051571;28;45042;-84
2022/04/14 00:24:36;;;;;;;;;18.00;16.25;;;;;13.65;76.41;101410.38;5068488;28;45167;-84
2022/04/14 00:27:02;;;;;;;;;17.00;15.67;;;;;13.72;76.73;101427.31;5065724;28;45364;-84
2022/04/14 00:29:27;;;;;;;;;13.75;13.25;;;;;13.71;76.55;101432.56;5051424;28;45952;-84
2022/04/14 00:31:53;;;;;;;;;19.75;17.00;;;;;13.54;76.87;101409.09;5062937;28;45246;-84
2022/04/14 00:34:18;;;;;;;;;19.00;18.00;;;;;13.67;76.87;101435.09;5059679;28;45167;-85
2022/04/14 00:36:43;;;;;;;;;16.00;15.00;;;;;13.62;76.82;101412.91;5062965;28;52235;-86
2022/04/14 00:39:11;;;;;;;;;18.00;18.00;;;;;13.54;76.37;101411.75;5050550;28;47704;-85
2022/04/14 00:41:40;;;;;;;;;18.00;16.75;;;;;13.76;76.46;101458.28;5051709;28;45677;-86
2022/04/14 00:44:05;;;;;;;;;17.25;16.25;;;;;13.26;76.55;101362.44;5073979;28;45216;-86
2022/04/14 00:46:31;;;;;;;;;16.25;16.25;;;;;13.85;76.79;101478.84;5064083;28;45142;-84
2022/04/14 00:48:57;;;;;;;;;16.25;14.50;;;;;13.50;76.89;101422.19;5070118;28;45165;-85
2022/04/14 00:51:23;;;;;;;;;18.50;17.00;;;;;13.41;76.43;101407.81;5060153;28;45295;-83
2022/04/14 00:53:48;;;;;;;;;18.00;16.00;;;;;13.64;76.24;101463.13;5056581;28;45504;-85
2022/04/14 00:56:14;;;;;;;;;16.50;16.25;;;;;13.67;76.39;101468.53;5052605;28;46581;-85
2022/04/14 00:58:41;;;;;;;;;17.75;16.75;;;;;13.67;76.60;101473.81;5057790;28;46154;-85
2022/04/14 01:01:07;;;;;;;;;20.75;19.00;;;;;13.67;76.87;101484.38;5049615;28;45430;-85
2022/04/14 01:03:34;;;;;;;;;18.00;18.00;;;;;13.65;76.95;101478.16;5060806;28;45326;-86
2022/04/14 01:06:00;;;;;;;;;18.00;14.50;;;;;13.33;76.75;101434.81;5067125;28;45470;-85
2022/04/14 01:08:29;;;;;;;;;16.75;16.75;;;;;13.46;77.03;101466.06;5058139;28;45221;-84
2022/04/14 01:10:57;;;;;;;;;18.00;18.00;;;;;13.38;77.20;101455.22;5054005;28;45454;-84
2022/04/14 01:13:22;;;;;;;;;17.75;16.75;;;;;13.22;76.89;101428.25;5048944;28;45430;-85
2022/04/14 01:15:48;;;;;;;;;19.50;19.50;;;;;13.29;77.08;101424.97;5057228;28;46960;-85
2022/04/14 01:18:17;;;;;;;;;16.50;15.00;;;;;13.62;77.07;101475.41;5062954;28;45071;-84
2022/04/14 01:20:43;;;;;;;;;17.50;15.00;;;;;13.60;77.47;101485.94;5040726;28;45872;-84
2022/04/14 01:23:10;;;;;;;;;17.00;15.00;;;;;13.29;77.49;101433.78;5044843;28;45777;-84
2022/04/14 01:25:37;;;;;;;;;15.50;13.50;;;;;13.22;77.25;101412.44;5042079;28;46128;-84
2022/04/14 01:28:04;;;;;;;;;14.00;13.00;;;;;13.58;77.10;101484.97;5042466;28;45394;-85
2022/04/14 01:30:29;;;;;;;;;18.75;17.25;;;;;13.34;76.79;101458.59;5035693;28;45598;-84
2022/04/14 01:32:55;;;;;;;;;14.50;14.50;;;;;13.09;76.98;101411.94;5049605;28;45840;-85
2022/04/14 01:35:21;;;;;;;;;8.25;8.00;;;;;13.32;77.07;101455.03;5052167;28;46963;-84
2022/04/14 01:37:46;;;;;;;;;13.25;12.75;;;;;13.33;77.21;101456.81;5041039;28;45438;-85
2022/04/14 01:40:12;;;;;;;;;14.00;13.00;;;;;13.32;77.09;101448.84;5054203;28;45509;-84
2022/04/14 01:42:38;;;;;;;;;16.25;16.25;;;;;13.43;77.21;101473.88;5045010;28;46621;-84
2022/04/14 01:45:04;;;;;;;;;13.50;13.00;;;;;13.22;76.97;101428.25;5053247;28;46580;-84
2022/04/14 01:47:30;;;;;;;;;11.25;11.25;;;;;13.15;76.75;101429.75;5051696;28;45973;-83
2022/04/14 01:49:55;;;;;;;;;11.67;11.67;;;;;13.53;76.60;101494.47;5057636;28;45711;-83
2022/04/14 01:52:20;;;;;;;;;11.50;11.25;;;;;13.16;76.71;101435.09;5046045;28;45155;-85
2022/04/14 01:54:46;;;;;;;;;3.00;3.00;;;;;13.40;77.01;101485.25;5036272;28;46977;-84
2022/04/14 01:57:11;;;;;;;;;12.50;12.50;;;;;13.06;76.98;101426.81;5050234;28;45475;-84
2022/04/14 01:59:36;;;;;;;;;12.00;12.00;;;;;13.48;76.57;101501.34;5061942;28;45593;-85
2022/04/14 02:02:03;;;;;;;;;12.75;12.75;;;;;13.30;76.88;101469.94;5050432;28;45583;-84
2022/04/14 02:04:28;;;;;;;;;12.25;11.50;;;;;12.94;76.89;101413.16;5049908;28;47218;-85
2022/04/14 02:06:54;;;;;;;;;13.25;12.75;;;;;13.03;76.63;101421.41;5055510;28;45527;-85
2022/04/14 02:09:19;;;;;;;;;12.75;11.75;;;;;13.33;76.84;101483.22;5053290;28;45025;-84
2022/04/14 02:11:45;;;;;;;;;13.50;13.00;;;;;13.12;76.90;101430.53;5054859;28;45105;-85
2022/04/14 02:14:10;;;;;;;;;13.00;12.00;;;;;13.42;77.03;101478.25;5048831;28;45222;-86
2022/04/14 02:16:35;;;;;;;;;11.00;11.00;;;;;13.07;76.84;101411.00;5051945;28;45307;-84
2022/04/14 02:19:01;;;;;;;;;15.00;13.50;;;;;13.28;76.27;101453.13;5049678;28;45650;-85
2022/04/14 02:21:26;;;;;;;;;14.00;13.25;;;;;13.08;76.53;101418.06;5041785;28;48227;-85
2022/04/14 02:23:51;;;;;;;;;15.00;14.25;;;;;13.41;76.60;101488.78;5037951;28;48140;-85
2022/04/14 02:26:19;;;;;;;;;13.25;13.25;;;;;13.40;76.96;101485.25;5057994;27;47171;-85
2022/04/14 02:28:44;;;;;;;;;13.25;13.25;;;;;12.99;76.78;101417.75;5050438;28;45445;-84
2022/04/14 02:31:10;;;;;;;;;13.00;12.75;;;;;13.10;76.81;101432.25;5053656;28;45279;-85
2022/04/14 02:33:35;;;;;;;;;14.00;12.75;;;;;13.09;77.01;101418.97;5049006;28;45851;-83
2022/04/14 02:36:00;;;;;;;;;17.25;15.25;;;;;13.07;76.90;101415.41;5054164;28;45464;-81
2022/04/14 02:38:26;;;;;;;;;12.00;11.67;;;;;13.01;76.68;101408.16;5046123;28;45568;-83
2022/04/14 02:40:51;;;;;;;;;16.00;14.75;;;;;13.16;76.76;101437.72;5041973;28;45965;-86
2022/04/14 02:43:16;;;;;;;;;13.67;13.67;;;;;12.98;76.92;101408.03;5037180;28;46710;-85
2022/04/14 02:45:41;;;;;;;;;13.00;11.50;;;;;13.10;76.69;101436.59;5042052;28;45557;-84
2022/04/14 02:48:07;;;;;;;;;15.00;12.33;;;;;13.18;77.07;101465.06;5040634;28;45419;-84
2022/04/14 02:50:32;;;;;;;;;13.25;12.25;;;;;12.90;76.83;101406.88;5060991;27;45431;-84
2022/04/14 02:52:58;;;;;;;;;14.50;13.50;;;;;12.93;76.70;101412.25;5046474;28;45914;-84
2022/04/14 02:55:23;;;;;;;;;14.00;13.75;;;;;12.93;76.68;101411.38;5063402;28;45587;-84
2022/04/14 02:57:49;;;;;;;;;14.50;14.50;;;;;13.08;76.83;101446.22;5054461;28;45198;-85
2022/04/14 03:00:15;;;;;;;;;11.00;11.00;;;;;13.32;76.68;101484.06;5038966;28;45471;-84
2022/04/14 03:02:42;;;;;;;;;13.00;13.00;;;;;13.30;77.08;101483.13;5039956;28;45485;-84
2022/04/14 03:05:08;;;;;;;;;11.75;10.75;;;;;13.29;76.96;101489.22;5039470;28;45484;-83
2022/04/14 03:07:34;;;;;;;;;13.25;13.25;;;;;13.28;76.69;101490.09;5037806;28;45532;-85
2022/04/14 03:10:00;;;;;;;;;16.75;16.75;;;;;12.96;77.18;101438.78;5047067;28;44774;-84
2022/04/14 03:12:26;;;;;;;;;15.75;14.50;;;;;13.20;76.76;101470.41;5037264;28;46270;-85
2022/04/14 03:14:51;;;;;;;;;16.00;15.00;;;;;13.00;77.01;101442.38;5040120;28;45450;-85
2022/04/14 03:17:18;;;;;;;;;14.00;13.50;;;;;13.27;77.06;101483.00;5065470;28;45398;-84
2022/04/14 03:19:43;;;;;;;;;14.00;13.25;;;;;13.26;76.94;101475.94;5053618;28;45359;-85
2022/04/14 03:22:09;;;;;;;;;14.00;13.50;;;;;12.83;76.79;101404.88;5040576;28;46454;-84
2022/04/14 03:24:34;;;;;;;;;19.00;17.25;;;;;12.97;76.75;101442.31;5042252;28;45847;-86
2022/04/14 03:27:00;;;;;;;;;11.75;11.75;;;;;12.86;76.97;101427.00;5059629;28;45368;-84
2022/04/14 03:29:28;;;;;;;;;15.25;14.50;;;;;12.96;76.89;101445.78;5054531;28;45547;-84
2022/04/14 03:31:53;;;;;;;;;13.75;12.75;;;;;13.15;77.01;101487.81;5059321;28;47280;-85
2022/04/14 03:34:18;;;;;;;;;12.00;12.00;;;;;12.68;77.10;101414.88;5045853;28;45436;-85
2022/04/14 03:36:44;;;;;;;;;15.00;15.00;;;;;12.83;76.77;101450.59;5054312;28;45311;-83
2022/04/14 03:39:09;;;;;;;;;17.00;15.33;;;;;12.95;77.04;101471.25;5046510;28;45988;-86
2022/04/14 03:41:34;;;;;;;;;14.33;14.33;;;;;12.76;76.83;101445.97;5041315;28;45749;-84
2022/04/14 03:44:00;;;;;;;;;13.75;12.25;;;;;12.77;77.36;101442.47;5040278;28;45621;-85
2022/04/14 03:46:25;;;;;;;;;14.50;14.50;;;;;12.97;77.21;101479.25;5061966;28;45640;-84
2022/04/14 03:48:51;;;;;;;;;13.75;11.75;;;;;12.87;77.32;101473.63;5042117;28;45711;-85
2022/04/14 03:51:16;;;;;;;;;9.75;9.75;;;;;12.97;77.15;101480.13;5048810;28;45685;-84
2022/04/14 03:53:43;;;;;;;;;9.25;9.25;;;;;12.87;77.23;101455.16;5034140;28;45477;-84
2022/04/14 03:56:08;;;;;;;;;14.50;14.00;;;;;12.57;76.69;101423.28;5047657;28;45312;-85
2022/04/14 03:58:33;;;;;;;;;7.50;7.00;;;;;12.45;76.86;101406.09;5046289;28;45378;-85
2022/04/14 04:00:59;;;;;;;;;13.25;12.25;;;;;12.63;76.74;101439.31;5053964;28;45464;-84
2022/04/14 04:03:24;;;;;;;;;13.00;13.00;;;;;12.69;76.80;101450.94;5051974;28;45443;-86
2022/04/14 04:05:49;;;;;;;;;12.75;12.25;;;;;12.60;76.77;101454.13;5061670;28;45219;-85
2022/04/14 04:08:15;;;;;;;;;14.50;13.50;;;;;12.78;77.12;101496.13;5071842;28;45315;-84
2022/04/14 04:10:40;;;;;;;;;14.25;12.25;;;;;12.57;76.75;101454.03;5057155;28;45181;-84
2022/04/14 04:13:06;;;;;;;;;15.00;14.25;;;;;12.88;77.04;101517.63;5040447;28;46106;-84
2022/04/14 04:15:31;;;;;;;;;15.00;13.00;;;;;12.80;76.81;101500.59;5041891;28;46000;-83
2022/04/14 04:17:57;;;;;;;;;14.75;14.50;;;;;12.66;76.82;101478.13;5044481;28;45513;-84
2022/04/14 04:20:22;;;;;;;;;13.25;12.75;;;;;12.57;77.00;101454.03;5059189;28;46033;-83
2022/04/14 04:22:47;;;;;;;;;14.75;13.50;;;;;12.74;76.93;101492.47;5055130;28;45680;-84
2022/04/14 04:25:12;;;;;;;;;11.50;10.00;;;;;12.50;77.01;101441.44;5055051;28;45090;-83
2022/04/14 04:27:38;;;;;;;;;13.00;12.00;;;;;12.88;77.02;101514.09;5063131;28;45053;-84
2022/04/14 04:30:05;;;;;;;;;9.50;8.75;;;;;12.87;77.03;101512.31;5062725;28;46830;-84
2022/04/14 04:32:33;;;;;;;;;12.75;12.75;;;;;12.65;76.88;101478.94;5067913;28;45606;-84
2022/04/14 04:35:02;;;;;;;;;13.25;11.25;;;;;12.30;77.22;101414.31;5061921;28;45177;-83
2022/04/14 04:37:27;;;;;;;;;14.00;11.25;;;;;12.79;77.11;101509.38;5052437;28;45612;-84
2022/04/14 04:39:53;;;;;;;;;14.00;14.00;;;;;12.47;76.90;101462.44;5070530;28;45259;-84
2022/04/14 04:42:18;;;;;;;;;12.75;11.50;;;;;12.56;76.82;101476.88;5056153;28;45116;-85
2022/04/14 04:44:43;;;;;;;;;15.50;14.75;;;;;12.53;76.60;101500.47;5047442;28;45386;-85
2022/04/14 04:47:09;;;;;;;;;15.00;14.75;;;;;12.10;76.58;101422.34;5049466;28;45352;-84
2022/04/14 04:49:34;;;;;;;;;15.25;15.25;;;;;12.26;77.17;101457.19;5068942;28;46040;-83
2022/04/14 04:52:00;;;;;;;;;16.25;14.25;;;;;12.24;77.34;101459.78;5065713;28;45136;-85
2022/04/14 04:54:26;;;;;;;;;17.50;16.75;;;;;12.22;77.36;101473.75;5066377;28;45559;-84
2022/04/14 04:56:51;;;;;;;;;14.75;14.25;;;;;12.02;77.21;101444.88;5062899;28;45307;-84
2022/04/14 04:59:17;;;;;;;;;18.50;17.50;;;;;12.23;77.33;101478.19;5062300;28;47021;-84
2022/04/14 05:01:42;;;;;;;;;17.50;16.75;;;;;11.88;77.13;101432.88;5073717;28;45495;-84
2022/04/14 05:04:09;;;;;;;;;14.00;14.00;;;;;11.71;77.09;101392.66;5064446;28;46297;-84
2022/04/14 05:06:34;;;;;;;;;17.00;15.50;;;;;12.11;77.16;101473.31;5064948;28;45234;-84
2022/04/14 05:09:00;;;;;;;;;16.00;15.50;;;;;12.27;77.18;101515.28;5064531;28;47533;-84
2022/04/14 05:11:25;;;;;;;;;18.00;17.00;;;;;12.09;77.05;101475.00;5064565;28;45129;-84
2022/04/14 05:13:50;;;;;;;;;14.25;13.50;;;;;12.28;77.07;101500.34;5061932;28;45249;-84
2022/04/14 05:16:19;;;;;;;;;14.75;14.50;;;;;12.23;76.84;101496.63;5042104;28;45387;-88
2022/04/14 05:18:44;;;;;;;;;15.75;15.50;;;;;12.10;76.58;101482.06;5041203;28;45744;-83
2022/04/14 05:21:09;;;;;;;;;16.25;16.00;;;;;11.94;76.81;101459.47;5050288;28;45869;-82
2022/04/14 05:23:34;;;;;;;;;13.33;12.67;;;;;12.23;76.84;101515.97;5061179;28;45141;-84
2022/04/14 05:26:00;;;;;;;;;18.00;17.33;;;;;12.27;77.13;101530.19;5065068;28;45394;-83
2022/04/14 05:28:25;;;;;;;;;15.50;13.75;;;;;12.11;76.86;101499.66;5055370;28;45708;-83
2022/04/14 05:30:51;;;;;;;;;15.25;14.50;;;;;12.12;77.02;101509.38;5066147;28;44997;-83
2022/04/14 05:33:16;;;;;;;;;16.00;15.00;;;;;12.08;76.76;101500.44;5047434;28;45843;-83
2022/04/14 05:35:43;;;;;;;;;17.00;16.75;;;;;11.89;76.94;101471.56;5048990;28;46575;-82
2022/04/14 05:38:09;;;;;;;;;19.00;18.25;;;;;12.24;77.11;101530.06;5048722;28;48285;-83
2022/04/14 05:40:35;;;;;;;;;22.50;20.50;;;;;12.08;76.96;101513.63;5059171;28;45459;-84
2022/04/14 05:43:00;;;;;;;;;21.00;18.00;;;;;11.97;77.25;101480.69;5069340;28;45103;-84
2022/04/14 05:45:26;;;;;;;;;20.50;19.00;;;;;12.04;77.40;101495.00;5070512;28;45082;-84
2022/04/14 05:47:51;;;;;;;;;21.25;20.75;;;;;12.44;77.44;101562.47;5070289;28;45491;-84
2022/04/14 05:50:16;;;;;;;;;16.50;16.00;;;;;12.22;76.97;101537.91;5056687;28;45391;-85
2022/04/14 05:52:42;;;;;;;;;21.00;19.00;;;;;12.21;77.20;101522.91;5050429;28;45988;-84
2022/04/14 05:55:08;;;;;;;;;21.00;19.00;;;;;12.46;77.25;101568.69;5052024;28;45522;-83
2022/04/14 05:57:33;;;;;;;;;18.25;18.25;;;;;12.08;77.20;101508.34;5050166;28;46190;-84
2022/04/14 05:59:59;;;;;;;;;18.25;18.00;;;;;11.99;77.35;101488.63;5050371;28;45583;-85
2022/04/14 06:02:25;;;;;;;;;20.50;19.25;;;;;12.41;77.32;101571.16;5054706;28;45552;-85
2022/04/14 06:04:51;;;;;;;;;18.50;17.25;;;;;12.32;77.44;101540.06;5068612;28;45182;-87
2022/04/14 06:07:16;;;;;;;;;20.00;19.00;;;;;12.56;77.42;101573.50;5068544;28;45505;-84
2022/04/14 06:09:42;;;;;;;;;18.50;18.25;;;;;12.15;77.25;101496.31;5068346;28;45164;-84
2022/04/14 06:12:08;;;;;;;;;23.00;20.75;;;;;12.18;77.50;101509.63;5051448;28;45474;-84
2022/04/14 06:14:33;;;;;;;;;17.50;17.25;;;;;12.25;77.31;101509.00;5040019;28;45305;-84
2022/04/14 06:16:59;;;;;;;;;24.25;20.50;;;;;12.35;77.12;101526.09;5040867;28;46215;-82
2022/04/14 06:19:25;;;;;;;;;23.25;21.00;;;;;12.44;77.24;101534.38;5044292;28;45434;-84
2022/04/14 06:21:50;;;;;;;;;20.00;19.75;;;;;12.54;77.42;101551.47;5042030;28;45631;-86
2022/04/14 06:24:16;;;;;;;;;27.75;26.25;;;;;12.29;77.44;101497.75;5047554;28;45233;-88
2022/04/14 06:26:41;;;;;;;;;22.75;21.25;;;;;12.37;77.33;101496.34;5047898;28;46911;-84
2022/04/14 06:29:07;;;;;;;;;25.50;24.00;;;;;12.84;77.47;101586.03;5047816;28;45480;-84
2022/04/14 06:31:32;;;;;;;;;24.25;23.00;;;;;12.50;77.58;101516.16;5048746;28;45266;-86
2022/04/14 06:33:58;;;;;;;;;22.00;21.00;;;;;12.65;77.61;101536.94;5048056;28;45132;-86
2022/04/14 06:36:23;;;;;;;;;26.00;23.25;;;;;12.97;77.25;101590.06;5049349;28;45986;-85
2022/04/14 06:38:48;;;;;;;;;24.25;21.00;;;;;12.77;77.53;101545.34;5049091;28;45223;-86
2022/04/14 06:41:14;;;;;;;;;27.25;25.00;;;;;12.67;77.61;101521.19;5047407;28;45475;-85
2022/04/14 06:43:39;;;;;;;;;23.00;21.33;;;;;13.06;77.84;101579.88;5048922;28;45573;-84
2022/04/14 06:46:04;;;;;;;;;27.67;26.00;;;;;12.87;77.44;101539.59;5050721;28;46142;-84
2022/04/14 06:48:31;;;;;;;;;27.00;22.75;;;;;12.78;77.49;101522.50;5055288;28;45072;-85
2022/04/14 06:50:58;;;;;;;;;29.75;26.50;;;;;12.67;77.55;101494.84;5056271;28;45403;-84
2022/04/14 06:53:23;;;;;;;;;24.50;23.50;;;;;13.20;77.92;101570.72;5047191;28;45124;-84
2022/04/14 06:55:49;;;;;;;;;26.75;24.25;;;;;13.21;77.77;101548.75;5049014;28;45321;-85
2022/04/14 06:58:15;;;;;;;;;27.75;27.75;;;;;13.53;77.35;101580.75;5062405;28;45076;-86
2022/04/14 07:00:40;;;;;;;;;28.75;28.50;;;;;13.46;76.94;101558.50;5068924;28;45153;-85
2022/04/14 07:03:06;;;;;;;;;30.00;28.75;;;;;13.81;77.24;101609.03;5069261;28;45163;-83
2022/04/14 07:05:32;;;;;;;;;31.00;29.25;;;;;13.30;77.24;101503.31;5068823;28;45392;-85
2022/04/14 07:07:57;;;;;;;;;28.25;27.00;;;;;13.94;76.87;101567.25;5069504;28;45232;-85
2022/04/14 07:10:23;;;;;;;;;34.00;31.50;;;;;13.85;77.04;101535.22;5068058;28;45067;-84
2022/04/14 07:12:48;;;;;;;;;31.50;29.50;;;;;14.13;77.08;101547.59;5066300;28;45155;-83
2022/04/14 07:15:14;;;;;;;;;36.00;32.00;;;;;14.27;76.66;101553.34;5068686;28;45548;-84
2022/04/14 07:17:40;;;;;;;;;35.00;33.25;;;;;14.77;76.90;101588.44;5068621;28;45720;-83
2022/04/14 07:20:09;;;;;;;;;40.75;33.75;;;;;15.07;76.39;101609.66;5067498;28;45227;-87
2022/04/14 07:22:46;;;;;;;;;36.00;33.00;;;;;14.91;76.02;101536.84;5067139;28;45254;-85
2022/04/14 07:25:13;;;;;;;;;33.50;31.00;;;;;15.40;76.12;101615.06;5068430;28;45673;-84
2022/04/14 07:27:38;;;;;;;;;39.25;33.00;;;;;15.14;75.64;101553.41;5068416;28;45216;-84
2022/04/14 07:30:04;;;;;;;;;31.75;30.00;;;;;15.17;75.47;101544.63;5069234;28;45028;-84
2022/04/14 07:32:34;;;;;;;;;32.75;31.00;;;;;15.19;74.97;101550.88;5066763;28;45006;-85
2022/04/14 07:35:00;;;;;;;;;26.00;26.00;;;;;15.04;74.65;101524.88;5067369;28;47540;-84
2022/04/14 07:37:25;;;;;;;;;36.50;33.50;;;;;15.49;74.57;101607.38;5066848;28;45174;-84
2022/04/14 07:39:50;;;;;;;;;36.67;31.00;;;;;15.16;74.70;101554.34;5068441;28;45209;-85
2022/04/14 07:42:16;;;;;;;;;34.67;32.00;;;;;15.28;74.86;101575.00;5053864;28;45391;-86
2022/04/14 07:44:41;;;;;;;;;32.50;30.75;;;;;15.36;74.39;101591.97;5048276;28;45581;-84
2022/04/14 07:47:06;;;;;;;;;29.25;28.00;;;;;15.04;74.21;101545.16;5048458;28;45013;-85
2022/04/14 07:49:32;;;;;;;;;34.25;32.00;;;;;15.20;74.68;101581.81;5058411;28;45171;-85
2022/04/14 07:51:57;;;;;;;;;35.00;33.00;;;;;15.06;74.52;101556.69;5068227;28;45818;-87
2022/04/14 07:54:23;;;;;;;;;34.25;31.50;;;;;14.95;74.67;101556.38;5043860;28;46953;-87
2022/04/14 07:56:48;;;;;;;;;31.75;30.00;;;;;14.72;74.80;101526.56;5045672;28;45580;-86
2022/04/14 07:59:13;;;;;;;;;33.50;32.50;;;;;15.30;74.87;101634.19;5056417;28;45105;-85
2022/04/14 08:01:39;;;;;;;;;32.33;31.00;;;;;14.87;75.21;101553.47;5068307;28;45136;-86
2022/04/14 08:04:04;;;;;;;;;36.00;32.00;;;;;14.97;75.13;101581.13;5068156;28;45252;-83
2022/04/14 08:06:31;;;;;;;;;40.00;34.00;;;;;14.86;74.90;101572.84;5066649;28;45395;-84
2022/04/14 08:08:56;;;;;;;;;40.00;34.00;;;;;14.79;75.06;101549.72;5066606;28;44995;-84
2022/04/14 08:11:22;;;;;;;;;35.50;33.00;;;;;15.09;74.98;101612.38;5067609;28;44995;-84
2022/04/14 08:13:47;;;;;;;;;40.00;33.00;;;;;14.77;75.37;101558.44;5066471;28;47656;-83
2022/04/14 08:16:12;;;;;;;;;36.33;34.00;;;;;14.89;75.36;101594.13;5051618;28;45303;-84
2022/04/14 08:18:40;;;;;;;;;38.00;35.00;;;;;15.12;75.84;101623.97;5038314;28;45437;-83
2022/04/14 08:21:06;;;;;;;;;35.50;32.00;;;;;14.93;76.24;101585.44;5037342;28;45818;-83
2022/04/14 08:23:39;;;;;;;;;43.25;36.50;;;;;15.06;76.12;101604.31;5037810;28;48198;-84
2022/04/14 08:26:06;;;;;;;;;41.00;34.75;;;;;15.21;76.00;101624.22;5050462;28;45308;-84
2022/04/14 08:28:32;;;;;;;;;41.25;36.00;;;;;14.95;75.90;101567.84;5049800;28;45686;-82
2022/04/14 08:30:57;;;;;;;;;40.75;36.50;;;;;15.11;75.42;101594.78;5054422;28;45194;-83
2022/04/14 08:33:24;;;;;;;;;44.50;37.50;;;;;14.93;74.94;101556.34;5048348;28;45438;-84
2022/04/14 08:35:51;;;;;;;;;41.00;36.00;;;;;15.39;74.81;101637.13;5043185;28;45621;-83
2022/04/14 08:38:17;;;;;;;;;47.25;40.00;;;;;15.13;75.09;101578.09;5045398;28;45289;-83
2022/04/14 08:40:46;;;;;;;;;42.00;36.00;;;;;15.31;74.65;101600.66;5042032;28;45342;-85
2022/04/14 08:43:14;;;;;;;;;44.75;37.75;;;;;15.42;74.79;101605.44;5053716;28;46232;-85
2022/04/14 08:45:45;;;;;;;;;45.75;38.50;;;;;15.46;74.49;101609.94;5056201;28;45849;-84
2022/04/14 08:48:15;;;;;;;;;46.00;38.00;;;;;15.63;74.24;101625.44;5053538;28;45720;-85
2022/04/14 08:50:43;;;;;;;;;37.25;34.25;;;;;15.51;74.32;101586.22;5034968;28;45488;-85
2022/04/14 08:53:09;;;;;;;;;41.25;35.00;;;;;15.49;74.04;101582.66;5032978;28;45670;-85
2022/04/14 08:55:39;;;;;;;;;40.25;33.75;;;;;15.55;73.93;101587.22;5031618;28;45872;-85
2022/04/14 08:58:05;;;;;;;;;33.00;30.75;;;;;15.77;73.38;101604.66;5033804;28;45462;-84
2022/04/14 09:00:32;;;;;;;;;37.75;33.75;;;;;15.73;73.58;101591.31;5039193;28;45570;-85
2022/04/14 09:02:59;;;;;;;;;37.00;33.00;;;;;15.72;73.84;101573.63;5032087;28;47618;-85
2022/04/14 09:05:24;;;;;;;;;33.25;31.25;;;;;15.71;73.75;101566.53;5043835;28;46191;-86
2022/04/14 09:07:51;;;;;;;;;31.75;31.00;;;;;15.80;73.65;101570.25;5043571;28;45304;-85
2022/04/14 09:10:18;;;;;;;;;35.00;33.00;;;;;15.82;72.98;101565.91;5040952;28;45710;-84
2022/04/14 09:12:43;;;;;;;;;39.50;34.00;;;;;15.96;72.68;101577.78;5042410;28;47398;-86
2022/04/14 09:15:10;;;;;;;;;31.25;30.00;;;;;15.93;72.33;101565.31;5049093;28;45390;-84
2022/04/14 09:17:35;;;;;;;;;34.25;32.25;;;;;15.98;71.71;101568.97;5045910;28;45442;-84
2022/04/14 09:20:31;;;;;;;;;30.50;29.75;;;;;16.29;71.75;101612.19;5066868;28;45537;-85
2022/04/14 09:23:22;;;;;;;;;36.25;32.25;;;;;16.32;71.61;101628.19;5046650;28;48408;-84
2022/04/14 09:25:51;;;;;;;;;32.50;31.25;;;;;16.21;71.79;101593.44;5043484;28;45801;-84
2022/04/14 09:28:20;;;;;;;;;25.50;25.25;;;;;16.30;70.65;101608.66;5049675;28;45795;-84
2022/04/14 09:31:09;;;;;;;;;23.75;21.75;;;;;16.49;70.08;101623.28;5052570;28;45303;-83
2022/04/14 09:33:44;;;;;;;;;23.50;22.75;;;;;16.28;70.21;101575.91;5050377;28;46052;-83
2022/04/14 09:36:17;;;;;;;;;29.00;28.00;;;;;16.67;70.04;101630.81;5049287;28;45379;-84
2022/04/14 09:38:56;;;;;;;;;33.50;29.25;;;;;16.86;70.28;101626.88;5075649;28;45443;-84
2022/04/14 09:41:29;;;;;;;;;26.25;25.00;;;;;16.99;69.75;101629.84;5059897;28;45192;-84
2022/04/14 09:43:56;;;;;;;;;22.25;22.00;;;;;16.91;68.70;101607.53;5047608;28;46101;-84
2022/04/14 09:46:21;;;;;;;;;22.25;22.25;;;;;16.75;68.11;101584.16;5051652;28;45810;-84
2022/04/14 09:49:07;;;;;;;;;21.25;20.00;;;;;16.99;67.73;101608.59;5052179;28;45534;-85
2022/04/14 09:51:35;;;;;;;;;14.00;13.75;;;;;16.78;67.61;101565.63;5035651;28;45434;-85
2022/04/14 09:54:05;;;;;;;;;17.75;17.00;;;;;16.82;67.17;101566.59;5051381;28;45639;-84
2022/04/14 09:56:46;;;;;;;;;15.50;15.00;;;;;17.18;67.78;101619.59;5033267;28;45396;-84
2022/04/14 09:59:16;;;;;;;;;14.25;14.25;;;;;17.20;67.17;101613.47;5031393;28;45510;-84
2022/04/14 10:01:43;;;;;;;;;13.75;13.75;;;;;17.09;67.91;101580.44;5036818;28;45573;-85
2022/04/14 10:04:27;;;;;;;;;19.00;17.25;;;;;17.03;67.67;101567.94;5055377;28;46818;-85
2022/04/14 10:07:02;;;;;;;;;14.00;13.75;;;;;17.39;67.40;101619.16;5062230;28;45525;-84
2022/04/14 10:09:31;;;;;;;;;13.75;12.75;;;;;17.45;66.28;101628.16;5053572;28;45179;-84
2022/04/14 10:11:57;;;;;;;;;19.25;17.25;;;;;17.49;66.90;101619.41;5058357;28;45625;-85
2022/04/14 10:14:24;;;;;;;;;17.75;17.50;;;;;17.41;66.07;101597.06;5054590;28;46134;-85
2022/04/14 10:16:50;;;;;;;;;18.75;17.75;;;;;17.56;65.98;101622.19;5068502;28;45196;-85
2022/04/14 10:19:17;;;;;;;;;20.25;18.25;;;;;17.46;65.71;101599.84;5049790;28;45164;-83
2022/04/14 10:21:44;;;;;;;;;15.00;15.00;;;;;17.66;65.68;101605.53;5065152;28;45394;-85
2022/04/14 10:24:11;;;;;;;;;18.75;18.25;;;;;17.58;65.39;101585.88;5050409;28;46336;-85
2022/04/14 10:26:37;;;;;;;;;18.50;16.75;;;;;17.20;64.92;101503.66;5043303;28;45890;-84
2022/04/14 10:29:06;;;;;;;;;15.25;15.25;;;;;17.63;64.75;101566.47;5041568;28;45392;-84
2022/04/14 10:31:35;;;;;;;;;13.50;13.50;;;;;17.82;64.83;101583.72;5034324;28;45706;-84
2022/04/14 10:34:04;;;;;;;;;16.75;16.75;;;;;17.82;65.47;101566.88;5051835;28;46609;-85
2022/04/14 10:36:31;;;;;;;;;14.75;14.75;;;;;17.93;64.49;101579.50;5033341;28;45424;-83
2022/04/14 10:38:58;;;;;;;;;16.75;15.75;;;;;17.92;64.25;101560.84;5031423;28;45733;-84
2022/04/14 10:41:27;;;;;;;;;21.00;20.50;;;;;18.16;64.86;101589.63;5030949;28;45274;-85
2022/04/14 10:44:00;;;;;;;;;13.25;13.25;;;;;17.99;64.33;101545.03;5030614;28;45485;-84
2022/04/14 10:46:36;;;;;;;;;17.50;16.25;;;;;18.18;64.74;101561.31;5030478;28;45981;-85
2022/04/14 10:49:13;;;;;;;;;20.00;18.25;;;;;18.48;63.94;101587.53;5037345;28;45449;-85
2022/04/14 10:51:39;;;;;;;;;17.75;17.50;;;;;18.29;63.32;101538.41;5042445;28;45432;-85
2022/04/14 10:54:06;;;;;;;;;16.25;15.25;;;;;18.73;63.29;101589.72;5044934;28;46059;-84
2022/04/14 10:56:37;;;;;;;;;16.50;16.50;;;;;18.77;62.14;101583.56;5046641;28;46181;-84
2022/04/14 10:59:11;;;;;;;;;14.25;14.00;;;;;18.79;62.17;101594.22;5027694;28;46464;-85
2022/04/14 11:01:45;;;;;;;;;15.50;14.25;;;;;18.81;61.88;101584.47;5049344;28;45517;-84
2022/04/14 11:04:26;;;;;;;;;15.50;15.50;;;;;18.90;61.83;101587.28;5035336;28;46824;-85
2022/04/14 11:06:54;;;;;;;;;16.50;16.25;;;;;18.98;61.97;101576.72;5050944;28;45605;-85